createdAt,value
2023-01-11T00:01:10.663Z,0.52
2023-01-11T00:03:38.611Z,0.77
2023-01-11T00:06:08.087Z,0.70
2023-01-11T00:08:35.928Z,0.60
2023-01-11T00:11:07.691Z,0.80
2023-01-11T00:13:35.610Z,0.80
2023-01-11T00:16:07.337Z,0.80
2023-01-11T00:18:35.236Z,0.77
2023-01-11T00:21:05.543Z,0.60
2023-01-11T00:23:33.429Z,0.75
2023-01-11T00:26:05.148Z,0.77
2023-01-11T00:28:32.977Z,0.60
2023-01-11T00:31:01.829Z,0.60
2023-01-11T00:33:29.898Z,0.60
2023-01-11T00:35:57.675Z,0.38
2023-01-11T00:38:42.916Z,0.50
2023-01-11T00:41:30.876Z,0.50
2023-01-11T00:44:16.288Z,0.50
2023-01-11T00:47:01.508Z,0.57
2023-01-11T00:49:29.472Z,0.90
2023-01-11T00:51:57.199Z,0.57
2023-01-11T00:54:25.160Z,0.50
2023-01-11T00:56:54.224Z,0.50
2023-01-11T00:59:22.001Z,0.43
2023-01-11T01:01:49.945Z,0.50
2023-01-11T01:04:17.896Z,0.43
2023-01-11T01:06:45.900Z,0.47
2023-01-11T01:09:13.509Z,0.55
2023-01-11T01:11:41.546Z,0.40
2023-01-11T01:14:28.392Z,0.50
2023-01-11T01:16:57.698Z,0.70
2023-01-11T01:19:27.844Z,0.50
2023-01-11T01:21:56.914Z,0.40
2023-01-11T01:24:25.052Z,0.40
2023-01-11T01:26:53.064Z,0.50
2023-01-11T01:29:22.710Z,0.40
2023-01-11T01:31:50.660Z,0.47
2023-01-11T01:34:18.898Z,0.40
2023-01-11T01:36:46.672Z,0.43
2023-01-11T01:39:15.654Z,0.38
2023-01-11T01:41:43.560Z,0.38
2023-01-11T01:44:53.806Z,0.60
2023-01-11T01:47:23.104Z,0.40
2023-01-11T01:49:50.887Z,0.30
2023-01-11T01:52:18.933Z,0.45
2023-01-11T01:54:48.571Z,0.30
2023-01-11T01:57:21.527Z,0.30
2023-01-11T01:59:52.052Z,0.45
2023-01-11T02:02:20.733Z,0.32
2023-01-11T02:04:48.949Z,0.38
2023-01-11T02:07:20.026Z,0.30
2023-01-11T02:09:50.269Z,0.50
2023-01-11T02:12:18.377Z,0.20
2023-01-11T02:14:47.227Z,0.25
2023-01-11T02:17:17.548Z,0.52
2023-01-11T02:19:53.541Z,0.30
2023-01-11T02:22:47.431Z,0.30
2023-01-11T02:25:40.161Z,0.22
2023-01-11T02:28:12.543Z,0.32
2023-01-11T02:30:45.623Z,0.30
2023-01-11T02:33:20.747Z,0.20
2023-01-11T02:35:53.681Z,0.38
2023-01-11T02:38:26.914Z,0.22
2023-01-11T02:41:01.405Z,0.40
2023-01-11T02:43:50.540Z,0.35
2023-01-11T02:46:25.463Z,0.23
2023-01-11T02:49:00.121Z,0.32
2023-01-11T02:51:32.989Z,0.30
2023-01-11T02:54:03.476Z,0.20
2023-01-11T02:56:33.841Z,0.30
2023-01-11T02:59:04.045Z,0.47
2023-01-11T03:01:32.159Z,0.38
2023-01-11T03:03:59.980Z,0.37
2023-01-11T03:06:30.025Z,0.22
2023-01-11T03:09:10.269Z,0.30
2023-01-11T03:12:07.061Z,0.30
2023-01-11T03:14:42.728Z,0.40
2023-01-11T03:17:17.505Z,0.50
2023-01-11T03:19:50.570Z,0.40
2023-01-11T03:22:24.913Z,0.40
2023-01-11T03:24:57.981Z,0.35
2023-01-11T03:27:30.728Z,0.17
2023-01-11T03:30:05.254Z,0.20
2023-01-11T03:32:38.261Z,0.10
2023-01-11T03:35:14.536Z,0.10
2023-01-11T03:37:46.362Z,0.20
2023-01-11T03:40:17.624Z,0.00
2023-01-11T03:43:11.341Z,0.08
2023-01-11T03:45:43.801Z,0.00
2023-01-11T03:48:14.530Z,0.00
2023-01-11T03:50:42.820Z,0.00
2023-01-11T03:53:11.490Z,0.00
2023-01-11T03:55:41.375Z,0.00
2023-01-11T03:58:10.336Z,0.00
2023-01-11T04:00:40.367Z,0.00
2023-01-11T04:03:09.732Z,0.00
2023-01-11T04:05:44.512Z,0.00
2023-01-11T04:08:12.430Z,0.00
2023-01-11T04:10:40.518Z,0.00
2023-01-11T04:13:08.068Z,0.00
2023-01-11T04:15:36.087Z,0.00
2023-01-11T04:18:05.969Z,0.00
2023-01-11T04:20:34.227Z,0.00
2023-01-11T04:23:01.969Z,0.00
2023-01-11T04:25:29.990Z,0.00
2023-01-11T04:27:57.794Z,0.00
2023-01-11T04:30:25.704Z,0.00
2023-01-11T04:32:53.488Z,0.00
2023-01-11T04:35:22.641Z,0.10
2023-01-11T04:37:51.272Z,0.00
2023-01-11T04:40:19.380Z,0.00
2023-01-11T04:42:46.473Z,0.00
2023-01-11T04:45:14.427Z,0.00
2023-01-11T04:47:42.338Z,0.00
2023-01-11T04:50:11.993Z,0.00
2023-01-11T04:52:41.736Z,0.00
2023-01-11T04:55:10.236Z,0.00
2023-01-11T04:57:38.088Z,0.00
2023-01-11T05:00:11.010Z,0.00
2023-01-11T05:02:38.808Z,0.00
2023-01-11T05:05:07.885Z,0.00
2023-01-11T05:07:36.037Z,0.00
2023-01-11T05:10:05.690Z,0.00
2023-01-11T05:12:33.651Z,0.00
2023-01-11T05:15:01.444Z,0.00
2023-01-11T05:17:29.222Z,0.00
2023-01-11T05:19:57.163Z,0.00
2023-01-11T05:22:24.982Z,0.00
2023-01-11T05:24:52.756Z,0.50
2023-01-11T05:27:21.712Z,0.30
2023-01-11T05:29:49.580Z,0.00
2023-01-11T05:32:17.285Z,0.00
2023-01-11T05:34:44.958Z,0.00
2023-01-11T05:37:12.767Z,0.00
2023-01-11T05:39:40.532Z,0.50
2023-01-11T05:42:08.318Z,0.30
2023-01-11T05:44:56.832Z,0.00
2023-01-11T05:47:25.656Z,0.00
2023-01-11T05:49:53.553Z,0.00
2023-01-11T05:52:21.472Z,0.00
2023-01-11T05:54:49.261Z,0.00
2023-01-11T05:57:17.202Z,0.00
2023-01-11T05:59:46.282Z,0.00
2023-01-11T06:02:14.116Z,0.00
2023-01-11T06:04:42.102Z,0.00
2023-01-11T06:07:10.209Z,0.00
2023-01-11T06:09:38.027Z,0.00
2023-01-11T06:12:06.000Z,0.00
2023-01-11T06:14:37.075Z,0.00
2023-01-11T06:17:07.246Z,0.00
2023-01-11T06:19:34.793Z,0.00
2023-01-11T06:22:02.651Z,0.00
2023-01-11T06:24:30.588Z,0.10
2023-01-11T06:26:58.391Z,0.10
2023-01-11T06:29:26.255Z,0.00
2023-01-11T06:31:54.184Z,0.00
2023-01-11T06:34:23.341Z,0.00
2023-01-11T06:36:51.186Z,0.00
2023-01-11T06:39:18.849Z,0.00
2023-01-11T06:41:46.765Z,0.00
2023-01-11T06:44:14.517Z,0.10
2023-01-11T06:46:42.458Z,0.00
2023-01-11T06:49:09.967Z,0.00
2023-01-11T06:51:39.258Z,0.00
2023-01-11T06:54:07.043Z,0.00
2023-01-11T06:56:34.947Z,0.00
2023-01-11T06:59:02.773Z,0.10
2023-01-11T07:01:32.459Z,0.00
2023-01-11T07:04:00.451Z,0.00
2023-01-11T07:06:29.219Z,0.00
2023-01-11T07:08:58.505Z,0.00
2023-01-11T07:11:26.465Z,0.00
2023-01-11T07:13:54.279Z,0.00
2023-01-11T07:16:22.063Z,0.10
2023-01-11T07:18:49.927Z,0.00
2023-01-11T07:21:18.761Z,0.00
2023-01-11T07:23:48.831Z,0.05
2023-01-11T07:26:18.094Z,0.00
2023-01-11T07:28:45.901Z,0.10
2023-01-11T07:31:13.778Z,0.00
2023-01-11T07:33:41.829Z,0.00
2023-01-11T07:36:10.082Z,0.00
2023-01-11T07:38:37.991Z,0.00
2023-01-11T07:41:26.006Z,0.00
2023-01-11T07:43:54.079Z,0.10
2023-01-11T07:46:21.966Z,0.00
2023-01-11T07:48:50.124Z,0.00
2023-01-11T07:51:20.538Z,0.00
2023-01-11T07:53:48.224Z,0.00
2023-01-11T07:56:16.638Z,0.00
2023-01-11T07:58:44.939Z,0.00
2023-01-11T08:01:14.471Z,0.00
2023-01-11T08:03:42.472Z,0.80
2023-01-11T08:06:10.393Z,0.10
2023-01-11T08:08:38.476Z,0.08
2023-01-11T08:11:23.854Z,0.00
2023-01-11T08:14:09.203Z,0.00
2023-01-11T08:16:38.332Z,0.00
2023-01-11T08:19:06.543Z,0.00
2023-01-11T08:21:34.566Z,0.00
2023-01-11T08:24:02.575Z,0.40
2023-01-11T08:26:30.578Z,0.00
2023-01-11T08:28:58.106Z,0.10
2023-01-11T08:31:26.410Z,0.55
2023-01-11T08:33:55.839Z,0.20
2023-01-11T08:36:24.503Z,0.10
2023-01-11T08:38:55.736Z,0.10
2023-01-11T08:41:23.794Z,0.30
2023-01-11T08:43:51.646Z,0.00
2023-01-11T08:46:20.200Z,0.40
2023-01-11T08:48:48.191Z,0.40
2023-01-11T08:51:18.741Z,0.00
2023-01-11T08:53:46.785Z,0.20
2023-01-11T08:56:15.029Z,0.30
2023-01-11T08:58:43.036Z,0.00
2023-01-11T09:01:12.118Z,0.15
2023-01-11T09:03:39.987Z,0.00
2023-01-11T09:06:08.087Z,0.00
2023-01-11T09:08:37.583Z,0.00
2023-01-11T09:11:25.655Z,0.00
2023-01-11T09:13:53.434Z,0.00
2023-01-11T09:16:21.472Z,0.00
2023-01-11T09:18:49.356Z,0.08
2023-01-11T09:21:17.850Z,1.10
2023-01-11T09:23:47.162Z,0.00
2023-01-11T09:26:15.842Z,0.10
2023-01-11T09:28:43.700Z,0.00
2023-01-11T09:31:11.562Z,0.10
2023-01-11T09:33:39.599Z,0.30
2023-01-11T09:36:08.029Z,0.05
2023-01-11T09:38:37.979Z,0.08
2023-01-11T09:41:17.888Z,0.10
2023-01-11T09:43:51.416Z,0.00
2023-01-11T09:46:19.576Z,0.60
2023-01-11T09:48:49.968Z,0.00
2023-01-11T09:51:19.841Z,0.40
2023-01-11T09:53:50.308Z,0.00
2023-01-11T09:56:24.680Z,0.30
2023-01-11T09:58:59.707Z,0.00
2023-01-11T10:01:35.065Z,0.00
2023-01-11T10:04:32.865Z,0.30
2023-01-11T10:07:17.640Z,0.00
2023-01-11T10:18:33.754Z,1.30
2023-01-11T10:19:18.551Z,1.60
2023-01-11T10:21:40.981Z,1.40
2023-01-11T10:24:14.800Z,0.00
2023-01-11T10:26:43.025Z,0.22
2023-01-11T10:29:38.799Z,1.00
2023-01-11T10:32:32.557Z,0.00
2023-01-11T10:35:24.319Z,0.00
2023-01-11T10:38:07.179Z,0.70
2023-01-11T10:41:00.105Z,0.00
2023-01-11T10:43:29.537Z,0.60
2023-01-11T10:46:01.023Z,0.70
2023-01-11T10:48:33.087Z,0.00
2023-01-11T10:51:04.992Z,0.30
2023-01-11T10:53:37.463Z,0.00
2023-01-11T10:56:15.432Z,0.00
2023-01-11T10:59:07.943Z,0.03
2023-01-11T11:01:50.340Z,0.00
2023-01-11T11:04:31.157Z,0.30
2023-01-11T11:07:06.765Z,0.10
2023-01-11T11:09:40.281Z,0.30
2023-01-11T11:12:10.663Z,0.00
2023-01-11T11:14:43.272Z,1.10
2023-01-11T11:17:18.280Z,0.20
2023-01-11T11:19:46.203Z,0.00
2023-01-11T11:22:14.210Z,0.00
2023-01-11T11:24:44.508Z,0.00
2023-01-11T11:27:19.714Z,0.50
2023-01-11T11:29:51.876Z,0.00
2023-01-11T11:32:26.079Z,0.00
2023-01-11T11:34:54.689Z,0.90
2023-01-11T11:37:28.343Z,0.00
2023-01-11T11:39:56.585Z,0.00
2023-01-11T11:42:24.897Z,0.00
2023-01-11T11:45:27.648Z,0.00
2023-01-11T11:48:06.748Z,0.00
2023-01-11T11:50:44.908Z,0.60
2023-01-11T11:53:24.999Z,0.22
2023-01-11T11:55:53.223Z,0.20
2023-01-11T11:58:23.808Z,0.60
2023-01-11T12:00:53.134Z,0.00
2023-01-11T12:03:27.405Z,0.00
2023-01-11T12:05:57.894Z,0.20
2023-01-11T12:08:26.460Z,0.00
2023-01-11T12:10:57.480Z,0.80
2023-01-11T12:13:33.273Z,1.10
2023-01-11T12:16:03.064Z,1.20
2023-01-11T12:18:41.437Z,0.00
2023-01-11T12:21:20.883Z,0.00
2023-01-11T12:23:49.373Z,0.50
2023-01-11T12:26:23.100Z,0.40
2023-01-11T12:29:10.816Z,0.00
2023-01-11T12:31:48.690Z,0.10
2023-01-11T12:34:26.425Z,0.00
2023-01-11T12:36:59.034Z,0.40
2023-01-11T12:39:33.847Z,0.08
2023-01-11T12:42:13.144Z,0.00
2023-01-11T12:44:55.084Z,0.00
2023-01-11T12:47:59.316Z,0.00
2023-01-11T12:50:31.871Z,0.00
2023-01-11T12:53:12.192Z,0.00
2023-01-11T12:55:56.525Z,0.00
2023-01-11T12:58:31.994Z,0.20
2023-01-11T13:01:25.072Z,0.63
2023-01-11T13:04:49.754Z,0.30
2023-01-11T13:07:28.986Z,0.00
2023-01-11T13:10:09.818Z,0.30
2023-01-11T13:12:42.401Z,0.10
2023-01-11T13:15:22.998Z,0.00
2023-01-11T13:17:57.171Z,0.30
2023-01-11T13:20:34.202Z,0.60
2023-01-11T13:23:14.637Z,1.02
2023-01-11T13:25:45.987Z,0.50
2023-01-11T13:28:24.452Z,1.70
2023-01-11T13:30:52.877Z,0.20
2023-01-11T13:33:23.348Z,1.00
2023-01-11T13:35:54.630Z,0.40
2023-01-11T13:38:34.674Z,0.00
2023-01-11T13:41:10.489Z,0.40
2023-01-11T13:43:42.048Z,0.00
2023-01-11T13:46:15.319Z,0.00
2023-01-11T13:48:45.526Z,0.40
2023-01-11T13:51:19.061Z,0.20
2023-01-11T13:53:53.006Z,0.00
2023-01-11T13:56:25.849Z,0.10
2023-01-11T13:58:57.247Z,1.00
2023-01-11T14:01:34.281Z,1.10
2023-01-11T14:04:07.222Z,0.00
2023-01-11T14:06:49.273Z,0.00
2023-01-11T14:09:29.388Z,1.00
2023-01-11T14:12:01.147Z,0.08
2023-01-11T14:14:38.991Z,0.90
2023-01-11T14:17:22.424Z,0.00
2023-01-11T14:19:54.999Z,0.30
2023-01-11T14:22:26.888Z,0.30
2023-01-11T14:25:00.531Z,0.00
2023-01-11T14:27:39.194Z,0.00
2023-01-11T14:30:37.034Z,1.60
2023-01-11T14:33:26.049Z,0.00
2023-01-11T14:36:22.411Z,0.00
2023-01-11T14:39:05.707Z,0.70
2023-01-11T14:41:48.842Z,1.80
2023-01-11T14:44:30.353Z,2.10
2023-01-11T14:47:27.377Z,2.45
2023-01-11T14:50:14.838Z,1.90
2023-01-11T14:52:43.708Z,1.73
2023-01-11T14:55:17.921Z,1.92
2023-01-11T14:58:02.691Z,2.15
2023-01-11T15:01:11.122Z,1.65
2023-01-11T15:03:46.725Z,2.42
2023-01-11T15:06:17.040Z,1.90
2023-01-11T15:08:47.848Z,2.47
2023-01-11T15:11:25.349Z,2.17
2023-01-11T15:13:57.337Z,2.47
2023-01-11T15:16:55.805Z,2.23
2023-01-11T15:19:29.419Z,2.28
2023-01-11T15:21:58.541Z,2.70
2023-01-11T15:24:29.376Z,2.55
2023-01-11T15:26:58.858Z,2.53
2023-01-11T15:29:31.227Z,2.60
2023-01-11T15:32:20.373Z,2.72
2023-01-11T15:34:49.328Z,2.58
2023-01-11T15:37:37.217Z,3.45
2023-01-11T15:40:12.922Z,2.90
2023-01-11T15:43:05.072Z,2.60
2023-01-11T15:46:19.818Z,3.28
2023-01-11T15:49:09.093Z,2.47
2023-01-11T15:51:55.426Z,2.70
2023-01-11T15:54:38.737Z,2.05
2023-01-11T15:57:34.322Z,2.65
2023-01-11T16:00:25.396Z,2.70
2023-01-11T16:03:29.190Z,2.47
2023-01-11T16:06:05.973Z,2.20
2023-01-11T16:08:40.588Z,3.00
2023-01-11T16:11:18.396Z,2.67
2023-01-11T16:13:58.554Z,2.50
2023-01-11T16:16:29.170Z,2.60
2023-01-11T16:18:59.939Z,2.20
2023-01-11T16:21:32.773Z,2.63
2023-01-11T16:24:01.116Z,2.50
2023-01-11T16:26:29.039Z,2.88
2023-01-11T16:28:58.886Z,2.72
2023-01-11T16:31:27.907Z,2.88
2023-01-11T16:33:55.901Z,2.88
2023-01-11T16:36:24.946Z,2.53
2023-01-11T16:39:02.791Z,2.88
2023-01-11T16:41:33.133Z,2.67
2023-01-11T16:44:03.823Z,2.65
2023-01-11T16:47:17.431Z,2.80
2023-01-11T16:49:57.971Z,3.10
2023-01-11T16:52:39.268Z,2.25
2023-01-11T16:55:23.419Z,2.43
2023-01-11T16:57:55.031Z,4.10
2023-01-11T17:00:28.932Z,2.58
2023-01-11T17:03:08.347Z,2.63
2023-01-11T17:05:36.274Z,2.63
2023-01-11T17:08:24.664Z,2.45
2023-01-11T17:10:56.467Z,2.10
2023-01-11T17:13:56.060Z,2.80
2023-01-11T17:16:26.250Z,3.08
2023-01-11T17:18:54.752Z,3.53
2023-01-11T17:21:25.385Z,2.80
2023-01-11T17:23:54.332Z,2.65
2023-01-11T17:26:25.140Z,2.13
2023-01-11T17:28:55.731Z,2.35
2023-01-11T17:31:25.526Z,2.47
2023-01-11T17:34:01.983Z,2.08
2023-01-11T17:36:29.975Z,2.65
2023-01-11T17:38:59.069Z,3.05
2023-01-11T17:41:46.763Z,2.45
2023-01-11T17:44:37.613Z,2.83
2023-01-11T17:47:08.133Z,2.60
2023-01-11T17:49:36.845Z,2.33
2023-01-11T17:52:12.712Z,2.67
2023-01-11T17:54:40.493Z,2.85
2023-01-11T17:57:10.198Z,2.97
2023-01-11T17:59:38.160Z,2.88
2023-01-11T18:02:12.546Z,2.83
2023-01-11T18:04:40.502Z,2.65
2023-01-11T18:07:11.175Z,2.60
2023-01-11T18:09:44.170Z,2.47
2023-01-11T18:12:16.527Z,2.65
2023-01-11T18:14:50.328Z,2.53
2023-01-11T18:17:31.995Z,2.30
2023-01-11T18:20:00.525Z,2.53
2023-01-11T18:22:31.948Z,2.47
2023-01-11T18:25:04.327Z,2.55
2023-01-11T18:27:34.117Z,2.97
2023-01-11T18:30:06.271Z,2.30
2023-01-11T18:32:37.264Z,2.47
2023-01-11T18:35:05.519Z,3.00
2023-01-11T18:37:33.226Z,2.97
2023-01-11T18:40:01.330Z,2.73
2023-01-11T18:42:32.195Z,2.55
2023-01-11T18:45:01.299Z,2.05
2023-01-11T18:47:30.426Z,1.92
2023-01-11T18:49:58.569Z,2.45
2023-01-11T18:52:42.111Z,1.95
2023-01-11T18:55:12.083Z,2.05
2023-01-11T18:57:40.117Z,2.08
2023-01-11T19:00:15.057Z,2.30
2023-01-11T19:02:44.588Z,1.90
2023-01-11T19:05:14.450Z,2.30
2023-01-11T19:07:42.579Z,1.88
2023-01-11T19:10:13.136Z,1.65
2023-01-11T19:12:41.204Z,1.80
2023-01-11T19:15:12.399Z,1.88
2023-01-11T19:17:40.435Z,2.30
2023-01-11T19:20:10.919Z,2.25
2023-01-11T19:22:39.281Z,2.30
2023-01-11T19:25:09.593Z,1.77
2023-01-11T19:27:37.715Z,2.40
2023-01-11T19:30:06.769Z,1.83
2023-01-11T19:32:36.545Z,1.50
2023-01-11T19:35:04.906Z,1.83
2023-01-11T19:37:34.136Z,2.03
2023-01-11T19:40:02.536Z,1.75
2023-01-11T19:42:30.226Z,1.90
2023-01-11T19:44:58.137Z,1.93
2023-01-11T19:47:25.824Z,2.38
2023-01-11T19:49:58.855Z,2.20
2023-01-11T19:52:27.150Z,2.13
2023-01-11T19:54:55.200Z,2.00
2023-01-11T19:57:23.133Z,2.60
2023-01-11T19:59:51.630Z,1.83
2023-01-11T20:02:21.771Z,2.05
2023-01-11T20:04:49.794Z,1.88
2023-01-11T20:07:19.700Z,2.15
2023-01-11T20:09:47.721Z,2.08
2023-01-11T20:12:16.539Z,1.75
2023-01-11T20:14:45.722Z,2.55
2023-01-11T20:17:13.802Z,1.90
2023-01-11T20:19:43.214Z,2.28
2023-01-11T20:22:11.041Z,2.28
2023-01-11T20:24:40.247Z,2.60
2023-01-11T20:27:07.895Z,2.13
2023-01-11T20:29:35.735Z,1.95
2023-01-11T20:32:27.704Z,2.42
2023-01-11T20:34:51.373Z,1.57
2023-01-11T20:37:19.173Z,1.83
2023-01-11T20:39:48.520Z,1.85
2023-01-11T20:42:16.468Z,2.47
2023-01-11T20:44:44.532Z,1.83
2023-01-11T20:47:12.283Z,1.90
2023-01-11T20:49:40.154Z,2.00
2023-01-11T20:52:08.055Z,1.80
2023-01-11T20:54:37.044Z,1.70
2023-01-11T20:57:12.475Z,1.73
2023-01-11T20:59:40.621Z,2.43
2023-01-11T21:02:08.451Z,1.90
2023-01-11T21:04:37.002Z,1.85
2023-01-11T21:07:04.921Z,1.65
2023-01-11T21:09:32.872Z,1.90
2023-01-11T21:12:00.477Z,1.83
2023-01-11T21:14:30.575Z,3.05
2023-01-11T21:16:58.507Z,1.65
2023-01-11T21:19:29.162Z,2.22
2023-01-11T21:21:57.074Z,2.90
2023-01-11T21:24:24.898Z,1.98
2023-01-11T21:26:52.893Z,2.30
2023-01-11T21:29:20.734Z,3.03
2023-01-11T21:31:49.944Z,1.75
2023-01-11T21:34:19.655Z,1.80
2023-01-11T21:36:47.207Z,2.38
2023-01-11T21:39:16.273Z,1.63
2023-01-11T21:41:58.378Z,1.90
2023-01-11T21:44:29.616Z,1.85
2023-01-11T21:46:59.307Z,2.13
2023-01-11T21:49:27.191Z,1.23
2023-01-11T21:51:55.157Z,1.33
2023-01-11T21:54:22.982Z,1.30
2023-01-11T21:56:51.446Z,2.13
2023-01-11T21:59:20.475Z,1.35
2023-01-11T22:01:49.480Z,0.68
2023-01-11T22:04:20.527Z,1.38
2023-01-11T22:06:51.658Z,1.80
2023-01-11T22:09:20.350Z,0.68
2023-01-11T22:11:48.583Z,0.00
2023-01-11T22:14:18.374Z,0.00
2023-01-11T22:16:46.462Z,0.40
2023-01-11T22:19:14.622Z,0.00
2023-01-11T22:21:44.032Z,0.20
2023-01-11T22:24:13.095Z,0.00
2023-01-11T22:26:40.917Z,0.00
2023-01-11T22:29:19.710Z,2.00
2023-01-11T22:31:49.666Z,0.00
2023-01-11T22:34:18.198Z,0.30
2023-01-11T22:36:47.559Z,0.00
2023-01-11T22:39:16.241Z,0.00
2023-01-11T22:41:45.804Z,0.00
2023-01-11T22:44:14.077Z,0.00
2023-01-11T22:46:42.294Z,0.00
2023-01-11T22:49:10.864Z,0.32
2023-01-11T22:51:38.909Z,0.00
2023-01-11T22:54:07.869Z,0.30
2023-01-11T22:56:35.803Z,0.00
2023-01-11T22:59:03.859Z,0.00
2023-01-11T23:01:33.186Z,0.38
2023-01-11T23:04:01.922Z,0.00
2023-01-11T23:06:31.655Z,0.73
2023-01-11T23:08:59.732Z,0.00
2023-01-11T23:11:48.235Z,0.20
2023-01-11T23:14:18.326Z,0.00
2023-01-11T23:16:47.251Z,0.00
2023-01-11T23:19:17.226Z,1.60
2023-01-11T23:21:45.967Z,0.10
2023-01-11T23:24:15.068Z,0.00
2023-01-11T23:26:45.133Z,0.00
2023-01-11T23:29:13.753Z,0.80
2023-01-11T23:31:42.708Z,0.10
2023-01-11T23:34:11.548Z,0.90
2023-01-11T23:36:40.880Z,0.00
2023-01-11T23:39:11.753Z,0.10
2023-01-11T23:41:56.750Z,0.20
2023-01-11T23:44:26.071Z,0.00
2023-01-11T23:47:11.312Z,0.00
2023-01-11T23:49:38.934Z,0.00
2023-01-11T23:52:07.787Z,0.00
2023-01-11T23:54:35.685Z,0.30
2023-01-11T23:57:04.449Z,0.00
2023-01-11T23:59:33.802Z,0.00
